Date,TemperatureHighF,TemperatureAvgF,TemperatureLowF,DewpointHighF,DewpointAvgF,DewpointLowF,HumidityHigh,HumidityAvg,HumidityLow,PressureMaxIn,PressureMinIn,WindSpeedMaxMPH,WindSpeedAvgMPH,GustSpeedMaxMPH,PrecipitationSumIn
2013-1-1,16.1,4.5,-10.0,9.9,-1.1,-15.0,79,77,73,30.12,29.91,7,2,10,0.00
2013-1-2,25.5,15.1,5.7,19.7,9.4,0.0,81,78,75,29.93,29.78,11,4,16,0.00
2013-1-3,17.6,11.0,7.2,11.2,5.2,1.5,78,77,76,30.10,29.93,12,6,14,0.00
2013-1-4,25.4,18.6,8.9,18.6,12.3,3.2,79,76,74,30.00,29.89,9,3,13,0.00
2013-1-5,29.9,15.8,5.3,22.6,9.7,-0.3,80,77,73,29.94,29.68,11,5,15,0.00
2013-1-6,18.7,11.8,8.0,12.4,5.9,2.1,79,77,75,30.06,29.84,9,5,12,0.00
2013-1-7,33.4,26.4,14.5,26.0,19.8,8.6,82,76,73,29.94,29.74,21,6,27,0.00
2013-1-8,35.7,23.0,8.3,28.2,17.0,2.9,81,77,74,29.80,29.61,16,5,20,0.00
2013-1-9,33.8,29.5,21.1,26.4,22.6,15.3,80,75,73,30.17,29.78,15,7,20,0.00
2013-1-10,36.6,30.9,21.8,28.8,24.5,16.0,84,77,71,30.15,29.53,20,11,25,0.01
2013-1-11,38.4,34.7,32.9,34.3,30.6,28.6,85,85,84,29.53,29.21,13,8,17,0.01
2013-1-12,37.5,18.1,8.1,33.4,12.3,2.7,85,78,75,29.88,29.22,18,9,23,0.00
2013-1-13,11.3,7.0,3.3,5.8,1.6,-1.9,79,78,76,30.10,29.85,12,6,14,0.00
2013-1-14,20.9,12.2,5.4,14.2,6.4,0.0,78,77,74,30.24,30.10,10,2,12,0.00
2013-1-15,31.9,22.6,14.0,22.3,15.3,8.1,77,73,65,30.15,29.72,13,5,22,0.00
2013-1-16,39.8,28.0,16.0,31.8,21.4,10.1,81,76,73,30.01,29.53,13,7,21,0.01
2013-1-17,25.5,16.6,7.2,19.0,10.2,1.8,79,76,65,30.21,30.01,11,4,13,0.00
2013-1-18,45.0,33.9,21.1,36.1,26.5,14.7,77,74,69,30.10,29.56,18,8,25,0.00
2013-1-19,40.9,28.5,5.0,33.2,21.5,-0.8,78,75,72,30.00,29.50,22,9,31,0.00
2013-1-20,13.1,6.5,1.1,5.0,0.3,-4.3,79,75,65,30.20,30.01,13,8,17,0.00
2013-1-21,3.0,-2.5,-8.7,-4.3,-8.8,-14.8,78,74,67,30.19,30.11,14,8,20,0.00
2013-1-22,10.8,3.4,-6.0,4.1,-3.5,-11.6,77,73,67,30.24,30.09,8,3,10,0.00
2013-1-23,17.7,10.5,-1.0,11.6,3.9,-9.3,78,74,66,30.39,29.97,18,6,24,0.00
2013-1-24,16.3,4.5,-3.0,5.8,-4.3,-10.5,73,67,55,30.47,30.03,19,8,25,0.00
2013-1-25,23.3,14.1,4.6,16.9,6.8,-0.8,78,72,55,30.10,29.82,18,8,27,0.00
2013-1-26,26.4,14.7,0.6,15.5,6.0,-4.6,79,69,59,30.17,29.95,20,8,24,0.00
2013-1-27,31.2,29.3,24.8,26.6,22.7,15.5,83,76,63,29.95,29.57,20,6,26,0.08
2013-1-28,33.2,30.6,29.0,29.2,26.4,24.8,85,84,83,29.70,29.39,0,0,0,0.06
2013-1-29,34.9,32.1,29.2,30.8,27.1,22.5,85,82,76,29.48,29.31,9,4,14,0.09
2013-1-30,29.1,19.1,7.9,22.5,13.1,2.5,79,77,76,29.58,29.35,17,10,23,0.00
2013-1-31,8.1,-0.0,-6.0,2.7,-5.1,-11.3,80,79,77,30.14,29.58,16,11,21,0.00
2013-2-1,10.6,1.9,-8.0,5.1,-3.9,-13.1,79,76,70,30.18,29.86,12,6,16,0.00
2013-2-2,15.6,11.1,5.5,10.1,5.6,0.2,79,78,76,29.99,29.76,11,4,13,0.00
2013-2-3,19.1,14.4,6.5,13.9,8.8,1.4,81,78,77,29.92,29.70,15,6,20,0.00
2013-2-4,20.1,12.8,5.6,13.1,7.0,0.0,79,77,72,29.87,29.65,10,4,15,0.04
2013-2-5,32.2,23.8,14.7,26.0,17.9,8.7,82,78,75,29.90,29.53,13,6,18,0.02
2013-2-6,35.1,24.3,7.3,28.3,18.7,1.9,81,79,75,29.91,29.69,20,6,26,0.00
2013-2-7,28.8,25.1,21.9,23.4,20.2,16.7,84,81,77,30.02,29.73,6,2,14,0.00
2013-2-8,26.9,25.3,23.4,20.3,19.0,17.0,78,77,76,30.16,30.02,19,6,22,0.00
2013-2-9,30.8,27.9,25.7,25.4,22.4,20.1,82,79,78,30.03,29.68,26,17,31,0.00
2013-2-10,35.7,32.0,29.2,31.6,27.4,23.8,85,83,80,29.69,29.04,22,10,29,0.04
2013-2-11,30.3,23.9,20.2,25.6,18.5,14.1,83,80,77,29.86,29.12,21,12,25,0.00
2013-2-12,36.7,27.1,19.3,28.7,20.6,13.6,78,76,70,29.88,29.63,11,4,16,0.00
2013-2-13,41.1,30.2,18.8,33.4,23.8,13.4,81,77,73,29.63,29.37,10,2,13,0.01
2013-2-14,35.5,28.7,15.8,29.1,22.4,9.9,82,77,67,29.96,29.37,14,8,18,0.00
2013-2-15,18.4,13.5,9.4,11.7,7.5,3.7,79,77,72,30.12,29.96,11,7,14,0.00
2013-2-16,23.9,16.5,9.9,16.8,10.5,4.0,78,77,72,30.08,29.91,7,2,9,0.00
2013-2-17,33.2,25.0,14.9,26.1,18.6,9.2,78,76,74,29.92,29.44,25,15,33,0.00
2013-2-18,33.7,22.6,5.0,27.8,16.5,-0.4,80,77,75,29.62,29.34,21,11,27,0.00
2013-2-19,5.2,1.2,-2.9,0.2,-3.9,-7.8,80,79,77,30.19,29.63,18,12,24,0.00
2013-2-20,17.1,6.8,-4.6,10.6,1.0,-9.5,79,77,69,30.29,30.19,8,3,12,0.00
2013-2-21,25.9,16.6,7.9,17.4,10.3,2.2,79,76,68,30.22,29.78,14,5,21,0.00
2013-2-22,28.2,21.7,18.0,21.6,16.0,12.6,80,78,75,29.80,29.65,9,5,14,0.15
2013-2-23,22.4,15.6,1.1,16.3,9.9,-3.9,79,78,76,29.78,29.68,9,3,12,0.02
2013-2-24,29.0,15.3,-4.3,21.9,9.4,-9.1,80,77,71,29.92,29.78,9,2,12,0.06
2013-2-25,33.6,28.1,21.9,26.5,22.1,16.5,82,78,74,29.91,29.80,5,1,6,0.05
2013-2-26,33.7,26.3,16.8,26.5,20.2,11.7,83,78,74,29.81,29.61,13,4,21,0.00
2013-2-27,34.2,29.9,24.2,27.1,23.2,18.1,78,76,75,29.78,29.60,11,5,15,0.00
2013-2-28,29.2,26.8,21.7,22.6,20.4,15.7,79,76,75,29.97,29.78,8,3,12,0.00
2013-3-1,27.3,21.9,8.2,20.0,15.3,2.8,79,75,69,30.13,29.97,11,4,15,0.00
2013-3-2,29.7,15.3,4.0,20.2,9.2,-1.3,80,76,66,30.14,29.98,4,0,5,0.00
2013-3-3,30.8,23.6,15.9,21.1,16.0,9.7,77,72,59,29.99,29.76,16,8,21,0.00
2013-3-4,28.6,25.1,22.2,22.0,19.2,16.4,81,78,74,29.81,29.68,23,12,29,0.00
2013-3-5,30.7,26.0,20.7,24.0,20.3,14.9,82,79,75,30.07,29.74,10,3,14,0.31
2013-3-6,26.1,18.7,1.0,19.6,12.8,-4.4,80,77,76,30.20,30.06,9,3,12,0.05
2013-3-7,28.0,13.3,-4.3,21.4,7.7,-9.1,80,78,76,30.20,30.11,16,6,20,0.00
2013-3-8,35.4,25.9,11.8,28.2,19.8,6.5,81,77,75,30.14,29.88,19,11,24,0.06
2013-3-9,34.2,33.3,32.7,29.9,28.8,27.2,85,83,79,29.88,29.47,23,12,28,0.42
2013-3-10,34.4,32.0,28.7,29.2,27.3,24.2,85,83,77,29.67,29.50,12,6,20,0.05
2013-3-11,28.7,25.6,19.3,24.2,20.3,13.2,83,80,77,29.67,29.53,13,7,17,0.05
2013-3-12,27.7,23.9,18.6,22.0,17.8,12.5,80,77,76,29.98,29.65,15,9,20,0.00
2013-3-13,26.9,18.9,10.6,20.3,12.9,5.2,79,77,74,30.21,29.99,10,4,12,0.00
2013-3-14,36.1,28.4,20.9,28.6,22.0,14.8,81,77,74,30.09,29.82,18,6,20,0.01
2013-3-15,40.8,32.8,26.0,33.2,27.0,20.5,83,79,74,29.82,29.55,11,2,15,0.01
2013-3-16,31.0,23.9,16.4,26.3,18.2,10.4,83,79,76,30.03,29.61,12,5,14,0.00
2013-3-17,28.9,20.8,10.9,22.3,14.5,5.4,78,76,74,30.04,29.67,25,11,31,0.00
2013-3-18,30.0,21.9,11.6,25.5,16.5,6.3,83,80,76,29.68,29.43,23,14,29,0.00
2013-3-19,21.6,13.3,7.2,15.7,7.5,1.8,79,77,73,30.04,29.67,17,12,22,0.00
2013-3-20,18.2,12.0,6.5,11.3,5.8,1.3,79,76,71,30.06,29.95,18,10,24,0.00
2013-3-21,24.9,14.3,2.0,15.3,7.3,-3.3,79,74,63,29.96,29.86,6,1,8,0.00
2013-3-22,33.1,21.2,7.4,20.2,12.9,1.9,79,71,54,29.91,29.86,4,0,5,0.00
2013-3-23,37.2,25.7,15.7,25.5,18.3,9.5,80,73,58,29.96,29.86,6,2,8,0.00
2013-3-24,32.6,27.9,23.7,25.2,21.3,17.8,79,76,73,29.90,29.72,10,4,17,0.00
2013-3-25,33.2,28.4,23.4,25.4,21.3,16.6,77,74,71,30.02,29.78,12,6,15,0.00
2013-3-26,35.3,26.7,19.5,27.8,20.2,13.7,79,76,73,30.10,30.02,7,4,10,0.00
2013-3-27,39.6,30.4,20.1,30.4,22.9,15.1,82,74,63,30.15,30.09,6,1,8,0.00
2013-3-28,41.7,32.7,23.7,33.5,25.8,18.7,82,76,71,30.13,30.06,10,3,12,0.00
2013-3-29,47.4,38.3,30.7,38.8,30.9,23.7,78,75,71,30.07,29.87,14,6,17,0.00
2013-3-30,48.3,40.3,33.7,41.1,33.8,29.1,84,77,72,29.87,29.64,18,6,22,0.13
2013-3-31,38.2,32.6,25.3,30.3,26.0,18.2,84,77,63,29.87,29.61,16,10,21,0.00
2013-4-1,34.2,26.5,19.6,25.8,19.0,13.4,77,73,63,30.07,29.87,14,8,16,0.00
2013-4-2,37.1,29.0,22.1,25.5,20.6,16.0,77,71,55,30.15,30.06,10,4,13,0.00
2013-4-3,44.4,34.4,23.6,34.0,26.0,17.2,79,72,62,30.21,29.94,19,7,24,0.00
2013-4-4,50.9,41.0,33.6,39.5,31.9,26.1,77,70,59,29.94,29.83,15,6,22,0.00
2013-4-5,42.2,36.6,28.0,33.6,28.5,21.6,77,72,63,30.00,29.65,21,8,27,0.00
2013-4-6,59.2,44.3,36.7,48.2,36.3,28.9,81,73,66,29.65,29.27,20,11,29,0.02
2013-4-7,52.2,40.6,32.5,43.4,33.9,27.3,83,77,70,29.74,29.52,14,4,18,0.07
2013-4-8,57.6,47.0,39.8,48.5,40.7,34.1,84,79,70,29.74,29.41,14,4,18,0.14
2013-4-9,40.0,38.0,35.1,34.3,32.8,30.2,82,81,80,29.85,29.60,19,9,28,0.95
2013-4-10,35.1,32.8,30.7,30.2,27.7,25.8,83,81,79,29.87,29.61,19,8,30,0.27
2013-4-11,34.8,32.9,30.9,30.5,28.2,26.3,84,83,79,29.60,29.38,11,4,17,0.47
2013-4-12,35.1,30.8,27.4,28.5,25.4,22.6,84,80,75,29.64,29.40,12,6,14,0.05
2013-4-13,39.7,33.0,28.3,32.4,26.5,22.6,82,77,69,29.73,29.64,12,6,15,0.02
2013-4-14,46.1,36.2,32.2,40.8,30.5,25.8,84,80,74,29.70,29.22,26,8,31,0.38
2013-4-15,41.7,36.4,32.5,34.0,29.3,25.5,77,75,73,29.80,29.38,15,8,21,0.00
2013-4-16,47.5,37.9,30.8,35.1,29.5,24.4,78,72,58,30.08,29.79,11,4,13,0.00
2013-4-17,38.6,36.4,34.7,32.4,30.3,27.5,83,78,74,30.07,29.47,25,6,35,0.56
2013-4-18,35.9,33.0,30.6,31.1,28.4,26.1,84,83,83,29.62,29.26,16,7,21,0.19
2013-4-19,36.4,31.8,29.8,29.3,25.9,23.3,83,79,75,29.79,29.29,16,10,21,0.01
2013-4-20,43.7,34.5,24.9,30.1,24.0,17.5,79,67,43,30.07,29.79,11,4,15,0.00
2013-4-21,56.9,43.6,33.5,47.2,36.4,28.0,82,76,67,30.09,29.79,30,13,37,0.52
2013-4-22,42.9,37.2,31.7,37.1,32.7,27.4,84,83,80,29.93,29.78,12,4,17,0.34
2013-4-23,39.6,33.2,28.9,31.8,27.0,23.5,84,78,67,29.93,29.84,10,6,14,0.25
2013-4-24,51.5,38.1,26.6,39.1,30.0,21.0,80,73,53,29.88,29.69,27,6,32,0.03
2013-4-25,53.7,40.7,29.6,37.2,30.3,23.0,78,68,41,30.01,29.80,18,7,23,0.00
2013-4-26,74.5,58.0,43.3,47.3,41.6,35.1,73,57,31,29.89,29.78,20,8,27,0.00
2013-4-27,72.2,57.3,41.2,53.2,45.7,35.8,83,67,49,29.89,29.69,14,6,22,0.00
2013-4-28,77.9,62.4,47.2,52.7,47.4,39.6,76,60,37,29.69,29.42,18,7,26,0.00
2013-4-29,75.0,62.5,49.3,59.2,52.2,43.9,84,70,55,29.55,29.29,16,4,21,0.11
2013-4-30,73.1,63.8,52.4,58.4,50.6,40.6,78,63,40,29.70,29.22,17,6,21,0.17
2013-5-1,52.3,40.0,32.6,43.1,34.0,28.0,84,79,70,30.23,29.67,14,4,17,0.29
2013-5-2,34.5,32.8,32.3,30.4,28.6,28.2,85,84,80,30.28,30.21,7,0,12,0.26
2013-5-3,34.2,32.8,31.2,28.4,27.6,26.5,83,81,79,30.05,29.87,9,6,17,0.34
2013-5-4,43.0,37.4,32.1,36.8,31.7,27.3,83,80,74,29.92,29.83,10,4,14,0.16
2013-5-5,61.7,47.0,37.5,51.8,39.9,32.5,83,77,69,29.93,29.84,6,2,9,0.00
2013-5-6,72.4,57.0,41.1,55.8,46.1,36.3,84,69,43,29.88,29.77,5,1,6,0.00
2013-5-7,76.5,62.8,44.4,57.4,49.0,38.6,83,63,41,29.83,29.71,10,2,13,0.00
2013-5-8,76.9,61.8,49.0,57.9,50.3,42.3,79,67,44,29.74,29.67,16,2,20,0.04
2013-5-9,57.3,52.5,44.6,51.1,46.9,39.1,83,81,79,29.78,29.65,12,4,21,0.31
2013-5-10,65.1,50.7,39.1,48.7,38.7,32.8,81,66,38,29.83,29.68,9,3,17,0.00
2013-5-11,54.0,48.5,39.0,43.9,32.8,23.5,73,56,34,29.94,29.66,18,9,24,0.00
2013-5-12,59.7,44.6,32.1,30.5,26.1,20.5,74,52,24,30.00,29.86,10,2,14,0.00
2013-5-13,73.6,57.2,41.0,49.5,38.0,23.6,69,49,36,29.89,29.47,21,9,28,0.00
2013-5-14,98.4,80.0,56.0,56.6,48.7,36.8,69,37,19,29.47,29.19,21,8,28,0.00
2013-5-15,76.3,66.3,55.3,52.3,46.3,40.7,68,50,33,29.67,29.42,9,3,12,0.00
2013-5-16,63.6,63.3,61.6,45.3,45.2,44.8,54,52,51,29.62,29.60,0,0,1,0.00
2013-5-17,66.6,59.7,53.5,58.6,53.6,48.3,84,80,75,29.72,29.63,18,9,24,1.52
2013-5-18,79.9,68.5,56.1,66.9,58.9,49.6,80,72,62,29.72,29.53,17,9,24,0.00
2013-5-19,79.4,69.0,63.0,67.1,60.4,56.3,83,74,66,29.55,29.27,26,10,32,0.64
2013-5-20,70.7,64.3,56.6,59.6,56.0,50.3,82,75,66,29.35,29.24,20,9,28,0.35
2013-5-21,65.3,59.6,56.1,55.3,51.6,49.0,83,75,69,29.42,29.25,13,3,18,0.02
2013-5-22,57.0,53.5,50.6,49.8,47.7,44.7,83,81,75,29.67,29.39,8,3,15,0.17
2013-5-23,63.5,54.7,46.2,48.2,42.5,38.5,80,65,41,30.08,29.68,11,5,20,0.00
2013-5-24,67.2,55.0,40.2,52.6,43.3,32.0,75,65,51,30.13,29.94,19,7,24,0.18
2013-5-25,54.6,52.4,50.3,46.6,44.8,42.6,81,75,72,30.01,29.94,22,12,32,0.11
2013-5-26,53.9,50.0,46.3,47.3,43.6,40.3,82,78,73,29.97,29.80,20,10,27,0.27
2013-5-27,56.4,54.1,52.0,51.6,49.1,46.4,84,83,81,29.79,29.55,17,7,25,0.55
2013-5-28,64.0,57.9,53.6,57.2,52.7,49.1,85,83,76,29.56,29.44,10,2,14,0.01
2013-5-29,76.2,64.9,57.4,65.6,58.2,52.3,85,79,69,29.57,29.40,19,7,25,0.03
2013-5-30,72.8,67.6,63.1,62.2,59.0,55.8,81,74,69,29.42,29.26,24,12,32,0.01
2013-5-31,79.1,67.9,58.7,63.2,55.9,49.9,81,67,45,29.35,29.28,24,10,32,0.00
2013-6-1,71.8,61.1,52.6,59.8,51.9,43.8,80,72,64,29.65,29.30,9,2,13,0.01
2013-6-2,66.0,56.4,47.9,47.9,43.7,39.7,73,63,44,29.83,29.65,8,2,14,0.01
2013-6-3,70.5,60.1,43.5,50.9,45.4,37.4,81,60,41,29.83,29.69,15,4,21,0.00
2013-6-4,60.7,56.3,51.7,50.7,48.4,45.7,81,75,65,29.83,29.74,20,9,25,0.24
2013-6-5,68.3,58.5,51.9,57.8,51.1,45.9,84,77,66,29.81,29.67,9,2,12,0.02
2013-6-6,57.9,55.6,53.0,51.4,48.7,47.0,81,78,74,29.77,29.68,4,1,7,0.00
2013-6-7,66.3,57.9,50.7,54.2,49.6,45.1,83,74,62,29.80,29.67,4,0,7,0.00
2013-6-8,68.4,59.6,50.9,56.2,51.3,45.0,82,74,63,29.68,29.61,17,4,21,0.25
2013-6-9,71.9,61.8,56.2,61.5,54.2,49.7,82,76,69,29.64,29.45,19,10,28,0.31
2013-6-10,75.7,63.5,53.3,63.3,56.0,48.3,84,77,64,29.62,29.54,4,0,9,0.01
2013-6-11,86.3,71.9,56.7,69.9,61.6,50.9,83,71,53,29.64,29.52,10,2,14,0.00
2013-6-12,80.0,70.1,63.5,68.9,61.8,55.8,81,75,68,29.62,29.39,21,4,29,0.40
2013-6-13,79.2,69.1,58.5,61.9,55.7,49.5,76,63,43,29.81,29.63,7,2,12,0.00
2013-6-14,76.4,68.3,58.1,63.6,57.8,50.6,78,69,62,29.82,29.60,21,10,27,0.00
2013-6-15,79.6,69.1,62.7,68.1,60.7,56.4,81,75,64,29.69,29.56,21,4,26,0.25
2013-6-16,84.4,72.3,59.7,62.9,56.9,52.8,80,61,37,29.69,29.60,5,1,8,0.00
2013-6-17,83.9,73.2,61.4,62.2,56.8,51.9,72,58,37,29.70,29.62,8,1,10,0.00
2013-6-18,76.9,67.3,58.1,63.9,56.9,51.3,79,70,56,29.80,29.70,11,2,14,0.23
2013-6-19,85.8,72.2,59.0,64.5,57.7,51.3,77,62,32,29.82,29.69,16,7,20,0.00
2013-6-20,82.6,71.5,66.1,67.6,60.6,56.4,71,69,59,29.75,29.72,16,8,21,0.00
2013-6-21,81.2,71.5,63.2,70.5,62.8,56.9,81,74,69,29.70,29.56,17,6,24,0.71
2013-6-22,89.2,77.5,63.9,75.4,67.2,57.4,80,71,59,29.69,29.53,24,6,30,1.38
2013-6-23,82.3,73.8,68.5,70.9,64.4,60.5,79,73,65,29.64,29.44,26,7,35,0.56
2013-6-24,74.9,69.1,65.5,66.1,60.7,57.5,77,75,73,29.65,29.54,10,2,12,0.10
2013-6-25,85.1,74.2,65.6,75.1,65.2,57.5,75,74,69,29.59,29.45,12,5,17,0.01
2013-6-26,85.5,76.1,69.1,74.8,66.3,60.8,76,72,61,29.57,29.40,11,2,15,0.00
2013-6-27,84.7,75.9,67.5,68.7,61.7,56.9,74,63,44,29.59,29.54,9,2,12,0.00
2013-6-28,77.7,71.1,64.4,64.3,59.9,55.7,74,68,55,29.56,29.48,9,3,18,0.02
2013-6-29,74.1,66.6,60.4,62.2,57.4,52.4,76,72,61,29.69,29.48,12,3,20,0.31
2013-6-30,78.2,66.7,55.0,57.9,52.5,47.2,76,62,36,29.85,29.69,8,2,14,0.00
2013-7-1,83.2,68.2,57.8,61.7,55.0,49.6,74,65,38,29.92,29.85,5,1,12,0.00
2013-7-2,77.1,64.0,60.1,57.0,54.1,52.0,75,71,44,29.87,29.78,7,0,7,0.00
2013-7-3,82.8,73.4,57.4,59.7,54.7,49.5,75,54,34,29.79,29.69,6,1,12,0.00
2013-7-4,87.6,74.8,60.8,64.2,57.7,52.4,74,57,35,29.73,29.63,15,6,21,0.00
2013-7-5,88.4,76.3,62.0,64.7,60.6,53.2,74,60,41,29.67,29.58,21,9,26,0.00
2013-7-6,92.3,79.5,66.3,67.2,62.7,57.4,73,58,36,29.65,29.55,18,9,25,0.00
2013-7-7,90.7,81.4,69.9,71.6,67.3,60.8,73,63,50,29.66,29.53,11,4,20,0.79
2013-7-8,90.2,79.0,67.8,75.2,67.7,59.1,75,69,51,29.69,29.59,7,1,10,2.75
2013-7-9,86.9,77.7,69.4,76.4,67.6,60.0,74,71,64,29.67,29.54,11,3,15,0.26
2013-7-10,79.7,71.6,63.0,64.8,59.1,54.6,75,66,47,29.80,29.65,6,1,12,0.00
2013-7-11,84.7,72.3,57.9,65.2,56.5,49.4,75,60,38,29.86,29.74,11,4,20,0.00
2013-7-12,86.0,75.0,63.8,64.8,60.2,55.4,75,61,44,29.79,29.69,19,10,24,0.00
2013-7-13,75.6,68.3,60.9,64.4,58.4,52.2,75,71,62,29.87,29.69,21,10,29,1.64
2013-7-14,83.9,73.9,63.8,69.9,63.3,55.0,75,70,58,29.93,29.81,14,6,20,0.00
2013-7-15,87.1,75.6,61.9,72.6,64.4,53.1,75,69,55,29.98,29.89,10,2,14,0.00
2013-7-16,92.3,81.5,70.3,76.2,68.9,60.8,73,66,52,29.96,29.90,8,2,12,0.00
2013-7-17,92.8,82.2,70.5,75.6,69.6,60.6,73,66,49,30.00,29.86,6,1,9,0.00
2013-7-18,92.8,83.9,73.7,75.9,70.1,64.5,74,64,49,29.86,29.56,10,4,21,0.00
2013-7-19,83.2,77.7,67.5,72.8,66.6,58.7,75,69,52,29.63,29.48,8,2,15,0.22
2013-7-20,81.8,71.9,63.6,69.1,62.4,54.8,75,72,59,29.68,29.61,4,0,6,0.00
2013-7-21,83.4,71.6,62.4,70.9,61.9,53.3,75,72,61,29.67,29.53,11,3,15,0.00
2013-7-22,88.1,73.9,62.7,76.0,63.9,53.5,76,71,59,29.57,29.41,12,4,17,0.00
2013-7-23,76.6,68.1,58.5,61.2,56.3,50.0,77,67,47,29.76,29.57,7,2,13,0.00
2013-7-24,78.3,66.0,53.8,62.1,55.4,45.4,77,69,52,29.82,29.73,5,0,9,0.00
2013-7-25,82.2,66.1,60.0,70.3,57.3,51.3,76,73,66,29.75,29.65,11,3,18,0.36
2013-7-26,71.0,64.5,56.8,61.0,55.6,49.8,78,73,62,29.81,29.65,6,2,16,0.00
2013-7-27,65.2,57.5,49.9,52.6,48.7,41.8,79,73,59,29.82,29.70,7,1,12,0.00
2013-7-28,70.9,59.6,46.6,56.5,50.2,38.9,78,71,57,29.82,29.70,5,1,9,0.00
2013-7-29,75.7,63.7,48.3,59.5,52.4,40.0,77,68,52,29.89,29.81,10,2,14,0.00
2013-7-30,74.8,67.5,62.3,65.6,59.3,54.3,76,75,71,29.84,29.79,6,1,8,0.00
2013-7-31,78.8,68.7,60.5,67.6,59.0,51.6,77,71,58,29.83,29.74,3,0,6,0.00
2013-8-1,82.5,69.9,56.7,68.1,57.9,49.2,77,67,41,29.80,29.60,8,1,12,0.10
2013-8-2,78.0,68.0,59.5,64.2,57.4,51.9,77,70,50,29.79,29.59,6,1,10,0.00
2013-8-3,77.8,62.6,51.5,60.0,52.3,43.2,77,70,48,29.94,29.78,3,0,9,0.00
2013-8-4,75.3,64.2,51.3,60.3,53.8,42.9,78,69,55,29.97,29.77,8,2,12,0.00
2013-8-5,79.3,68.0,60.2,70.7,59.4,51.1,77,74,71,29.77,29.56,13,3,20,0.71
2013-8-6,84.4,67.5,57.1,71.8,58.5,48.3,76,73,64,29.60,29.47,6,0,12,0.00
2013-8-7,74.9,66.5,58.5,63.3,56.6,51.0,77,71,56,29.78,29.53,5,1,10,0.00
2013-8-8,75.1,61.4,51.5,62.3,52.6,43.1,77,73,61,29.81,29.73,6,0,10,0.00
2013-8-9,76.5,67.5,57.2,62.4,56.7,49.9,78,69,56,29.87,29.74,4,1,8,0.00
2013-8-10,77.1,65.7,52.4,63.4,56.1,44.7,78,71,57,29.94,29.83,2,0,4,0.01
2013-8-11,73.0,66.8,61.0,65.2,58.1,51.9,77,74,72,29.86,29.75,6,1,10,0.41
2013-8-12,77.2,67.6,58.8,65.0,57.2,50.2,77,70,55,29.80,29.75,7,1,10,0.01
2013-8-13,74.4,63.7,54.3,56.4,51.7,45.7,78,66,43,29.93,29.80,6,1,12,0.00
2013-8-14,78.2,62.6,48.6,58.4,51.0,40.3,78,67,42,29.97,29.87,4,0,8,0.00
2013-8-15,78.0,63.6,47.1,60.5,51.6,38.9,78,66,45,29.90,29.83,7,1,12,0.00
2013-8-16,68.1,55.8,51.0,60.6,47.7,42.6,77,74,72,29.95,29.89,0,0,0,0.00
2013-8-17,79.5,70.5,59.8,60.1,56.9,52.6,78,63,48,29.91,29.87,12,3,14,0.00
2013-8-18,79.3,66.9,52.1,63.8,55.9,43.3,78,69,51,29.91,29.79,13,3,17,0.00
2013-8-19,83.4,70.8,58.1,70.4,61.1,49.1,78,72,63,29.81,29.67,12,4,18,0.00
2013-8-20,86.0,75.5,64.7,74.4,66.2,55.8,77,73,66,29.69,29.61,13,6,21,0.00
2013-8-21,85.4,75.7,68.9,74.4,66.9,59.1,77,74,68,29.72,29.61,9,2,13,0.01
2013-8-22,82.6,72.8,64.3,71.1,62.6,54.6,75,71,61,29.85,29.72,7,1,12,0.26
2013-8-23,78.8,67.3,57.7,69.4,57.9,48.7,74,72,70,29.87,29.79,10,3,15,0.00
2013-8-24,84.6,75.4,66.5,74.4,66.2,57.2,75,73,69,29.85,29.73,17,9,22,0.00
2013-8-25,89.7,81.3,73.6,77.4,71.2,64.5,75,71,63,29.81,29.71,15,7,21,0.00
2013-8-26,93.2,83.7,76.7,79.7,73.0,68.2,75,71,59,29.75,29.60,12,5,20,0.00
2013-8-27,91.3,82.8,76.1,78.6,72.2,65.5,75,71,61,29.62,29.54,11,2,20,0.00
2013-8-28,92.3,80.4,70.8,78.8,70.0,60.9,76,71,59,29.72,29.62,7,1,10,0.00
2013-8-29,91.0,80.5,73.7,75.6,69.4,63.6,78,69,53,29.73,29.60,12,4,15,0.00
2013-8-30,87.2,76.9,68.0,77.0,67.7,59.8,78,73,63,29.61,29.57,7,2,12,0.00
2013-8-31,85.7,72.6,62.4,72.8,63.7,53.4,79,74,62,29.61,29.50,8,2,10,0.00
2013-9-1,77.0,70.5,63.9,65.7,61.3,57.4,80,73,65,29.70,29.48,7,1,12,0.01
2013-9-2,67.3,59.8,51.0,57.4,51.6,43.7,81,75,65,29.83,29.70,7,2,13,0.00
2013-9-3,77.2,61.4,42.8,61.6,51.4,35.5,80,70,51,29.87,29.77,5,0,8,0.01
2013-9-4,87.1,71.4,54.2,71.1,61.1,46.0,80,71,55,29.86,29.79,3,0,7,0.00
2013-9-5,86.1,73.6,62.2,73.7,64.8,54.5,80,74,63,29.92,29.85,8,2,12,0.00
2013-9-6,87.1,74.5,64.6,69.7,63.1,55.4,80,68,51,29.86,29.63,14,6,22,0.00
2013-9-7,91.7,78.1,66.8,77.0,68.7,59.8,80,73,57,29.68,29.58,10,2,13,0.00
2013-9-8,79.4,71.6,67.8,70.4,64.3,59.6,80,78,72,29.75,29.62,12,4,17,0.00
2013-9-9,93.9,77.7,65.7,74.6,65.1,56.8,79,66,40,29.62,29.40,14,6,22,0.00
2013-9-10,85.8,73.8,64.7,70.2,64.4,55.9,80,73,51,29.72,29.52,5,0,7,0.00
2013-9-11,84.1,71.3,62.0,68.0,60.1,55.1,80,69,51,29.80,29.72,4,0,6,0.02
2013-9-12,74.6,63.6,52.1,56.7,51.6,45.6,81,66,44,29.96,29.80,10,1,16,0.00
2013-9-13,70.5,57.2,44.6,50.3,45.6,38.1,82,67,43,30.02,29.86,6,1,9,0.00
2013-9-14,74.3,58.7,43.7,53.6,46.3,37.6,82,66,41,29.87,29.61,14,4,20,0.35
2013-9-15,64.5,58.1,51.3,57.0,50.9,45.3,82,77,73,30.04,29.58,11,4,15,0.49
2013-9-16,68.4,54.9,42.8,56.5,46.4,35.8,83,74,54,30.15,30.01,7,2,12,0.00
2013-9-17,60.7,53.6,44.2,54.0,46.7,37.8,82,77,72,30.03,29.72,14,7,21,0.05
2013-9-18,79.7,69.7,59.8,72.1,62.2,51.1,81,77,72,29.72,29.46,14,8,20,0.07
2013-9-19,82.3,72.6,63.3,71.1,65.4,56.8,82,78,67,29.56,29.40,11,3,15,0.02
2013-9-20,66.4,57.8,49.8,57.4,51.3,44.6,83,79,64,29.70,29.54,6,2,12,0.00
2013-9-21,66.8,53.8,43.1,51.8,45.5,36.7,83,74,57,29.76,29.67,4,0,8,0.00
2013-9-22,75.3,58.9,43.3,57.5,49.0,36.6,83,71,52,29.73,29.62,15,6,20,0.00
2013-9-23,73.7,60.1,48.7,55.7,50.4,43.5,83,72,49,29.72,29.62,18,8,24,0.00
2013-9-24,75.3,60.1,47.5,57.7,50.5,42.0,83,72,48,29.71,29.66,10,3,16,0.00
2013-9-25,74.9,59.7,43.7,56.3,49.5,36.9,83,71,49,29.73,29.61,11,3,15,0.00
2013-9-26,81.7,66.6,53.4,63.3,56.4,48.0,83,71,51,29.68,29.60,19,9,28,0.00
2013-9-27,85.2,71.9,62.6,65.1,60.9,57.0,82,70,47,29.68,29.57,21,11,30,0.00
2013-9-28,68.3,59.8,48.5,62.2,53.5,43.6,83,80,74,29.73,29.43,20,6,26,0.25
2013-9-29,75.4,58.8,41.5,51.3,45.1,36.3,84,64,35,29.77,29.61,14,5,21,0.00
2013-9-30,77.2,63.6,49.6,54.7,50.2,44.1,83,63,44,29.62,29.41,22,10,32,0.00
2013-10-1,76.8,65.0,48.1,54.3,48.3,38.2,79,57,29,29.75,29.41,11,2,21,0.00
2013-10-2,78.5,61.7,41.5,57.9,45.3,36.7,84,59,26,29.81,29.58,15,5,23,0.00
2013-10-3,71.4,60.8,57.8,65.3,52.9,49.2,82,75,72,29.65,29.51,10,2,17,0.96
2013-10-4,64.5,59.9,57.1,59.2,52.0,48.5,83,75,72,29.67,29.49,14,3,25,0.90
2013-10-5,63.4,54.4,44.4,54.6,46.0,39.3,85,74,56,29.61,29.50,8,2,12,0.04
2013-10-6,55.7,48.7,45.0,47.7,43.0,40.3,85,81,65,29.63,29.46,4,0,7,0.03
2013-10-7,68.1,53.0,42.8,52.2,43.4,38.0,85,72,45,29.76,29.63,4,0,6,0.00
2013-10-8,76.5,60.1,45.0,48.9,45.4,40.4,84,62,33,29.76,29.65,19,8,27,0.00
2013-10-9,75.1,60.1,48.2,54.4,48.6,43.1,84,68,43,29.83,29.73,16,6,21,0.00
2013-10-10,76.8,60.4,46.4,54.1,48.6,41.8,84,68,40,29.82,29.64,16,6,23,0.00
2013-10-11,74.2,63.2,53.0,60.6,54.9,47.9,83,75,53,29.65,29.42,26,11,35,0.03
2013-10-12,62.7,52.8,44.2,52.7,41.4,33.6,84,67,39,29.97,29.51,12,3,15,0.01
2013-10-13,61.9,47.8,35.8,42.1,35.9,31.0,85,66,38,30.20,29.97,4,0,7,0.00
2013-10-14,56.9,48.0,36.7,46.2,38.9,32.3,85,72,53,30.17,29.65,19,6,29,0.19
2013-10-15,53.2,49.2,46.8,47.7,43.2,39.6,85,80,74,29.68,29.46,19,7,27,0.44
2013-10-16,47.9,44.8,39.2,42.5,39.4,34.8,85,81,76,29.73,29.56,5,1,9,0.01
2013-10-17,59.7,45.7,32.7,45.5,38.0,28.1,85,76,50,29.70,29.55,6,1,13,0.01
2013-10-18,51.8,44.0,38.1,39.0,35.0,31.6,85,72,49,29.76,29.64,5,2,13,0.00
2013-10-19,48.7,38.9,31.1,42.9,33.1,26.4,85,80,65,29.66,29.49,7,2,10,0.01
2013-10-20,56.1,39.7,30.1,43.5,34.1,26.0,85,80,65,29.67,29.40,12,4,17,0.00
2013-10-21,42.8,35.2,27.3,34.0,26.9,21.9,85,72,54,29.77,29.65,8,2,12,0.00
2013-10-22,41.2,33.3,25.3,32.9,27.2,21.4,86,78,66,29.83,29.74,5,1,8,0.00
2013-10-23,38.1,34.6,29.8,30.8,27.9,23.8,84,76,64,29.89,29.80,5,2,8,0.00
2013-10-24,44.9,36.0,29.3,32.1,28.1,24.7,85,74,55,30.12,29.89,6,2,10,0.00
2013-10-25,56.4,41.4,26.2,38.5,31.5,22.1,86,70,49,30.14,29.64,14,5,27,0.00
2013-10-26,49.5,42.5,32.0,38.2,32.8,26.7,81,69,55,29.88,29.62,9,5,13,0.00
2013-10-27,62.8,43.1,28.5,38.4,31.7,24.3,85,67,38,29.86,29.58,13,3,20,0.00
2013-10-28,47.4,38.5,32.9,33.5,30.5,27.9,84,74,54,30.14,29.81,8,4,17,0.00
2013-10-29,53.2,44.2,35.7,42.4,35.8,28.5,81,73,62,30.13,29.81,16,5,22,0.00
2013-10-30,56.9,51.5,49.1,51.8,44.9,41.4,84,78,73,29.82,29.40,14,4,17,0.03
2013-10-31,53.4,42.8,38.7,45.0,36.6,32.5,85,79,73,29.40,29.18,8,4,9,0.01
2013-11-1,40.5,40.5,40.5,36.3,36.3,36.3,85,85,85,29.38,29.38,5,5,9,0.00
2013-11-2,31.1,31.1,31.1,27.1,27.1,27.1,85,85,85,29.90,29.90,3,3,5,0.00
2013-11-3,49.0,46.8,42.3,36.1,35.7,34.9,75,65,59,29.86,29.67,26,20,36,0.00
2013-11-4,48.5,43.5,32.6,43.9,37.6,28.3,85,80,65,29.93,29.63,24,9,37,0.01
2013-11-5,44.4,35.3,24.6,38.0,30.2,20.5,85,82,75,30.00,29.70,12,4,20,0.35
2013-11-6,39.9,33.8,28.8,33.2,28.4,24.8,85,80,69,29.99,29.72,8,4,16,0.01
2013-11-7,40.7,33.6,30.3,34.3,29.0,26.0,85,83,75,30.03,29.97,10,5,14,0.00
2013-11-8,45.8,36.4,24.7,41.3,30.3,20.8,86,79,61,30.01,29.47,26,10,36,0.02
2013-11-9,45.4,40.8,31.5,40.4,35.4,27.2,85,81,72,30.01,29.48,16,9,20,0.00
2013-11-10,43.1,37.5,32.4,34.3,30.9,27.8,84,77,68,30.13,29.87,9,4,16,0.00
2013-11-11,40.7,26.3,15.8,33.7,20.7,10.7,85,79,74,30.50,29.86,8,5,16,0.00
2013-11-12,22.6,15.8,6.6,15.0,10.5,3.0,85,79,69,30.61,30.32,7,3,12,0.00
2013-11-13,48.9,35.2,21.7,37.1,25.4,13.6,74,67,61,30.32,29.71,13,7,25,0.01
2013-11-14,44.6,38.1,33.4,39.8,32.4,27.6,85,80,69,29.71,29.58,9,4,20,0.01
2013-11-15,55.9,41.7,31.4,45.5,35.6,26.3,85,79,62,29.65,29.46,13,5,18,0.01
2013-11-16,55.0,44.8,38.1,47.5,38.6,33.7,85,79,73,29.45,29.01,17,13,25,0.01
2013-11-17,40.1,36.3,32.8,35.7,31.8,28.5,84,84,83,29.64,29.42,13,10,22,0.08
2013-11-18,37.4,31.2,23.9,28.9,25.2,20.1,86,79,66,30.05,29.65,12,6,20,0.00
2013-11-19,44.0,34.3,21.7,34.8,28.1,18.1,86,78,68,30.06,29.75,24,14,33,0.00
2013-11-20,40.3,38.2,36.4,33.9,31.4,29.6,85,77,68,29.80,29.68,21,14,29,0.00
2013-11-21,37.4,30.0,24.7,30.2,24.6,20.8,86,80,75,30.26,29.80,9,5,13,0.00
2013-11-22,28.8,21.7,12.2,20.7,15.6,8.5,86,77,60,30.40,30.27,11,6,14,0.00
2013-11-23,17.4,10.9,5.2,11.1,5.0,-0.2,84,77,64,30.64,30.38,12,5,16,0.00
2013-11-24,27.0,17.3,3.9,16.3,9.2,-0.6,83,71,55,30.55,29.91,20,9,29,0.00
2013-11-25,41.1,32.6,25.4,31.3,24.3,16.0,78,71,61,29.91,29.78,15,7,28,0.00
2013-11-26,32.7,21.1,13.4,25.0,11.3,6.0,77,66,55,30.15,29.87,17,8,21,0.00
2013-11-27,25.5,16.9,6.2,13.4,9.3,2.4,85,73,55,30.17,29.87,16,5,20,0.00
2013-11-28,30.5,20.1,10.0,18.9,13.3,6.0,86,75,60,30.31,29.86,13,3,15,0.00
2013-11-29,33.4,22.0,6.9,22.6,15.6,3.1,86,77,59,30.32,29.97,21,9,25,0.00
2013-11-30,44.2,32.4,21.6,32.2,25.7,17.8,86,77,62,29.97,29.81,12,4,16,0.00
2013-12-1,40.4,29.9,20.4,29.6,23.9,16.8,86,79,64,29.96,29.70,5,1,8,0.00
2013-12-2,38.9,33.8,24.3,34.4,29.5,20.4,86,84,78,29.70,29.35,18,8,22,0.05
2013-12-3,36.8,34.8,33.0,29.6,28.0,25.9,82,76,75,29.51,29.36,13,3,16,0.08
2013-12-4,35.0,30.0,14.3,27.9,24.0,10.4,86,78,75,29.59,29.24,18,7,23,0.08
2013-12-5,14.3,8.7,2.7,10.6,4.1,-2.1,85,81,79,30.19,29.58,18,11,23,0.00
2013-12-6,9.0,1.3,-2.8,3.6,-3.4,-7.3,82,80,77,30.49,30.17,9,6,12,0.00
2013-12-7,9.1,1.8,-6.0,2.9,-3.6,-10.3,82,78,66,30.57,30.39,6,2,8,0.00
2013-12-8,14.9,11.9,8.1,11.5,8.4,2.8,87,86,80,30.39,29.84,13,5,18,0.00
2013-12-9,12.2,0.9,-4.0,9.0,-3.4,-8.8,87,81,77,29.98,29.75,14,7,20,0.00
2013-12-10,16.7,10.9,4.4,13.2,7.0,0.9,86,84,77,30.06,29.65,20,8,24,0.00
2013-12-11,16.4,-0.7,-7.3,13.1,-5.6,-12.1,87,79,76,30.40,30.06,13,5,17,0.00
2013-12-12,22.9,14.5,1.8,17.1,9.9,-3.0,86,82,75,30.20,29.93,14,3,21,0.01
2013-12-13,24.9,16.5,7.7,18.1,12.1,4.2,87,82,73,30.01,29.89,12,4,18,0.00
2013-12-14,15.5,12.7,3.1,11.5,8.6,-1.7,86,84,79,30.00,29.89,13,5,16,0.00
2013-12-15,8.3,4.9,1.3,2.3,-0.1,-3.4,84,79,74,29.96,29.89,10,4,14,0.00
2013-12-16,23.4,13.5,6.4,19.5,9.9,2.1,87,85,82,29.93,29.77,12,6,16,0.00
2013-12-17,30.6,23.9,11.9,26.3,19.3,7.8,86,82,77,29.92,29.75,20,9,27,0.00
2013-12-18,39.7,26.3,9.6,32.2,21.5,6.0,87,82,71,29.90,29.49,17,5,22,0.07
2013-12-19,29.7,22.3,19.8,25.8,18.3,15.5,86,84,82,29.77,29.59,14,6,20,0.00
2013-12-20,20.9,19.4,17.1,17.1,15.7,13.4,87,85,84,29.75,29.64,11,4,16,0.00
2013-12-21,23.2,20.1,16.4,19.4,16.5,12.9,87,86,83,29.73,29.64,10,3,17,0.00
2013-12-22,21.1,12.0,-1.8,17.6,8.3,-6.0,86,85,82,30.08,29.68,11,7,15,0.00
2013-12-23,-1.3,-4.6,-7.7,-5.2,-9.4,-12.2,83,79,77,30.35,30.08,12,8,15,0.00
2013-12-24,9.8,0.5,-10.1,6.5,-4.7,-14.6,86,78,61,30.35,30.00,18,9,23,0.00
2013-12-25,28.9,18.4,9.9,25.0,14.7,6.6,87,85,80,30.01,29.89,14,6,16,0.00
2013-12-26,30.0,24.9,19.1,25.3,21.1,15.5,87,85,80,29.97,29.86,6,2,12,0.04
2013-12-27,40.7,29.8,18.2,33.3,25.3,14.7,86,83,72,29.97,29.74,15,4,25,0.02
2013-12-28,41.7,31.5,21.1,35.3,26.9,17.3,86,83,75,29.80,29.46,16,6,20,0.01
2013-12-29,25.2,3.3,-8.3,20.9,-1.4,-13.1,86,80,73,30.13,29.70,17,9,21,0.00
2013-12-30,4.7,-2.2,-8.5,0.9,-6.5,-13.2,85,82,77,30.13,29.98,11,4,14,0.00
2013-12-31,3.6,-1.3,-6.9,0.1,-5.1,-11.2,85,83,81,30.19,30.03,6,3,9,0.00
2014-1-1,3.4,-0.3,-6.1,-1.9,-5.3,-10.4,81,79,75,30.26,30.16,9,4,12,0.00
2014-1-2,2.0,-4.6,-15.2,-2.8,-9.5,-20.0,82,79,74,30.31,30.20,6,2,8,0.00